• Join FlightAware (Why Join?)
  • Login
  • US Flag 
02:59AM EDT


 

Airport Tracker/Info


-or-


 

Live Flight TrackerFlight Track Log ✈ UPS2020 ✈ 25-Jul-2013 ✈ KDFW - KBOS

Flight Track Log - Related Links

Times and Time Zones

All times are in EDT time to prevent confusion due to time zone crossing. See the UPS2020 flight status page for this flight to view local times or setup timezone preferences in your user account.

Time Position Orientation Groundspeed Altitude Reporting Facility
EDT Latitude Longitude Course Direction KTS MPH feet Rate Location/Type
03:26PM 32.8810 -97.0300 180° South 169 194 1,600  Level FlightAware
03:27PM 32.8490 -97.0260 174° South 167 192 3,400 2,280 Climbing FlightAware
03:27PM 32.8280 -97.0160 158° South 203 234 4,200 1,500 Climbing FlightAware
03:28PM 32.7970 -97.0010 158° South 257 296 4,900 1,980 Climbing FlightAware
03:28PM 32.7800 -96.9860 143° Southeast 268 308 5,800 3,180 Climbing FlightAware
03:28PM 32.7740 -96.9730 119° Southeast 268 308 6,400 3,300 Climbing FlightAware
03:29PM 32.7720 -96.9320 93° East 280 322 7,900 3,300 Climbing FlightAware
03:29PM 32.7790 -96.9140 65° Northeast 286 329 8,600 3,300 Climbing FlightAware
03:29PM 32.7960 -96.8840 56° Northeast 293 337 9,900 2,340 Climbing FlightAware
03:30PM 32.8270 -96.8250 58° Northeast 341 392 11,100 1,740 Climbing FlightAware
03:31PM 32.8660 -96.7510 58° Northeast 390 449 12,300 2,400 Climbing FlightAware
03:31PM 32.9090 -96.6670 59° Northeast 398 458 14,600 2,700 Climbing FlightAware
03:32PM 32.9460 -96.5970 58° Northeast 417 480 16,000 2,280 Climbing FlightAware
03:33PM 32.9920 -96.5090 58° Northeast 432 497 17,700 2,280 Climbing FlightAware
03:33PM 33.0380 -96.4210 58° Northeast 444 511 19,400 2,220 Climbing FlightAware
03:34PM 33.0720 -96.3530 59° Northeast 453 521 20,500 2,100 Climbing FlightAware
03:35PM 33.1100 -96.2420 68° East 468 539 22,100 1,920 Climbing FlightAware
03:35PM 33.1390 -96.1440 71° East 479 551 23,300 1,800 Climbing FlightAware
03:36PM 33.1710 -96.0380 70° East 487 560 24,600 1,800 Climbing FlightAware
03:37PM 33.2010 -95.9360 71° East 493 567 25,800 1,680 Climbing FlightAware
03:37PM 33.2360 -95.8170 71° East 499 574 27,100 1,620 Climbing FlightAware
03:38PM 33.2580 -95.7430 70° East 503 579 27,800 1,740 Climbing FlightAware
03:38PM 33.2830 -95.6570 71° East 504 580 28,900 1,980 Climbing FlightAware
03:39PM 33.2984 -95.6041 71° East 502 578 29,600 1,980 Climbing FlightAware ADS-B
03:39PM 33.3269 -95.5052 71° East 502 578 30,800 1,800 Climbing FlightAware ADS-B
03:40PM 33.3573 -95.3997 71° East 497 572 32,000 1,020 Climbing FlightAware ADS-B
03:41PM 33.3820 -95.3150 71° East 492 566 32,200 1,320 Climbing FlightAware
03:41PM 33.4090 -95.2200 71° East 491 565 33,600 1,620 Climbing FlightAware
03:42PM 33.4460 -95.0890 71° East 493 567 34,500 960 Climbing FlightAware
03:43PM 33.4740 -94.9930 71° East 496 571 35,000 360 Climbing FlightAware
03:43PM 33.5050 -94.8830 71° East 498 573 35,000  Level FlightAware
03:44PM 33.5410 -94.7570 71° East 497 572 35,000  Level FlightAware
03:45PM 33.5630 -94.6820 71° East 497 572 35,000  Level FlightAware
03:46PM 33.5920 -94.5800 71° East 497 572 35,000  Level FlightAware
03:46PM 33.6150 -94.5000 71° East 497 572 35,000  Level FlightAware
03:47PM 33.6450 -94.3930 71° East 497 572 35,000  Level FlightAware
03:48PM 33.6690 -94.3110 71° East 497 572 35,000  Level FlightAware
03:48PM 33.6920 -94.2310 71° East 497 572 35,000  Level FlightAware
03:49PM 33.7840 -94.0270 61° Northeast 479 551 35,000  Level FlightAware
03:50PM 33.8430 -93.9110 58° Northeast 478 550 35,000  Level FlightAware
03:51PM 33.9060 -93.8120 53° Northeast 467 537 35,000  Level FlightAware
03:52PM 33.9720 -93.7220 49° Northeast 468 539 35,000  Level FlightAware
03:52PM 34.0310 -93.6430 48° Northeast 468 539 35,000  Level FlightAware
03:53PM 34.1050 -93.5370 50° Northeast 473 544 35,000  Level FlightAware
03:54PM 34.1520 -93.4720 49° Northeast 473 544 35,000  Level FlightAware
03:54PM 34.2170 -93.3810 49° Northeast 473 544 35,000  Level FlightAware
03:55PM 34.2750 -93.2990 49° Northeast 473 544 35,000  Level FlightAware
03:56PM 34.3190 -93.2380 49° Northeast 473 544 35,000  Level FlightAware
03:56PM 34.3980 -93.1270 49° Northeast 477 549 35,000  Level FlightAware
03:57PM 34.4540 -93.0490 49° Northeast 477 549 35,000  Level FlightAware
03:58PM 34.4990 -92.9860 49° Northeast 477 549 35,000  Level FlightAware
03:58PM 34.5460 -92.9200 49° Northeast 477 549 35,000  Level FlightAware
03:59PM 34.5880 -92.8620 49° Northeast 477 549 35,000  Level FlightAware
04:00PM 34.6510 -92.7740 49° Northeast 477 549 35,000  Level FlightAware
04:00PM 34.6950 -92.7120 49° Northeast 477 549 35,000  Level FlightAware
04:01PM 34.7540 -92.6300 49° Northeast 477 549 35,000  Level FlightAware
04:02PM 34.7990 -92.5660 49° Northeast 477 549 35,000  Level FlightAware
04:03PM 34.8590 -92.4830 49° Northeast 477 549 35,000  Level FlightAware
04:03PM 34.9030 -92.4210 49° Northeast 477 549 35,000  Level FlightAware
04:04PM 34.9470 -92.3590 49° Northeast 477 549 35,000  Level FlightAware
04:05PM 35.1020 -92.1250 51° Northeast 491 565 35,000  Level FlightAware
04:05PM 35.1490 -92.0590 49° Northeast 491 565 35,000  Level FlightAware
04:06PM 35.1940 -91.9950 49° Northeast 491 565 35,000  Level FlightAware
04:07PM 35.2730 -91.8730 52° Northeast 487 560 35,000  Level FlightAware
04:07PM 35.3310 -91.7890 50° Northeast 486 559 35,000  Level FlightAware
04:08PM 35.3780 -91.7210 50° Northeast 486 559 35,000  Level FlightAware
04:09PM 35.4520 -91.6120 50° Northeast 487 560 35,000  Level FlightAware
04:09PM 35.5130 -91.5220 50° Northeast 489 563 35,000  Level FlightAware
04:10PM 35.5740 -91.4320 50° Northeast 493 567 35,000  Level FlightAware
04:11PM 35.6470 -91.3230 50° Northeast 493 567 35,000  Level FlightAware
04:12PM 35.7330 -91.1960 50° Northeast 484 557 35,000  Level FlightAware
04:13PM 35.8270 -91.0560 50° Northeast 488 562 35,000  Level FlightAware
04:14PM 35.8880 -90.9670 50° Northeast 488 562 35,000  Level FlightAware
04:15PM 35.9680 -90.8450 51° Northeast 488 562 35,000  Level FlightAware
04:15PM 36.0240 -90.7610 50° Northeast 486 559 35,000  Level FlightAware
04:16PM 36.0850 -90.6690 51° Northeast 485 558 35,000  Level FlightAware
04:17PM 36.1460 -90.5760 51° Northeast 491 565 35,000  Level FlightAware
04:18PM 36.2240 -90.4590 50° Northeast 491 565 35,000  Level FlightAware
04:18PM 36.2920 -90.3540 51° Northeast 490 564 35,000  Level FlightAware
04:19PM 36.3380 -90.2860 50° Northeast 490 564 35,000  Level FlightAware
04:20PM 36.4100 -90.1740 51° Northeast 489 563 35,000  Level FlightAware
04:21PM 36.4780 -90.0700 51° Northeast 484 557 35,000  Level FlightAware
04:21PM 36.5320 -89.9860 51° Northeast 484 557 35,000  Level FlightAware
04:22PM 36.6030 -89.8760 51° Northeast 488 562 35,000  Level FlightAware
04:23PM 36.6750 -89.7650 51° Northeast 486 559 35,000  Level FlightAware
04:24PM 36.7340 -89.6730 51° Northeast 483 556 35,000  Level FlightAware
04:24PM 36.7830 -89.5970 51° Northeast 481 554 35,000  Level FlightAware
04:25PM 36.8290 -89.5260 51° Northeast 481 554 35,000  Level FlightAware
04:25PM 36.8930 -89.4250 52° Northeast 483 556 35,000  Level FlightAware
04:27PM 36.9690 -89.3070 51° Northeast 483 556 35,000  Level FlightAware
04:27PM 37.0120 -89.2410 51° Northeast 483 556 35,000  Level FlightAware
04:28PM 37.0880 -89.1180 52° Northeast 474 545 35,000  Level FlightAware
04:29PM 37.1450 -89.0300 51° Northeast 471 542 35,000  Level FlightAware
04:29PM 37.1960 -88.9490 52° Northeast 470 541 35,000  Level FlightAware
04:30PM 37.2560 -88.8520 52° Northeast 470 541 35,000  Level FlightAware
04:31PM 37.3060 -88.7730 51° Northeast 470 541 35,000  Level FlightAware
04:31PM 37.3480 -88.7040 53° Northeast 469 540 35,000  Level FlightAware
04:32PM 37.4020 -88.6190 51° Northeast 463 533 35,000  Level FlightAware
04:32PM 37.4600 -88.5250 52° Northeast 465 535 35,000  Level FlightAware
04:33PM 37.5190 -88.4310 52° Northeast 471 542 35,000  Level FlightAware
04:34PM 37.5670 -88.3520 53° Northeast 476 548 35,000  Level FlightAware
04:35PM 37.6320 -88.2470 52° Northeast 476 548 35,000  Level FlightAware
04:35PM 37.6860 -88.1590 52° Northeast 474 545 35,000  Level FlightAware
04:36PM 37.7410 -88.0720 51° Northeast 474 545 35,000  Level FlightAware
04:37PM 37.7960 -87.9800 53° Northeast 473 544 35,000  Level FlightAware
04:37PM 37.8510 -87.8900 52° Northeast 472 543 35,000  Level FlightAware
04:38PM 37.9130 -87.7890 52° Northeast 473 544 35,000  Level FlightAware
04:39PM 37.9670 -87.7020 52° Northeast 475 547 35,000  Level FlightAware
04:39PM 38.0030 -87.6460 51° Northeast 474 545 35,000  Level FlightAware
04:40PM 38.0670 -87.5450 51° Northeast 469 540 35,000  Level FlightAware
04:41PM 38.1210 -87.4610 51° Northeast 468 539 35,000  Level FlightAware
04:41PM 38.1700 -87.3840 51° Northeast 466 536 35,000  Level FlightAware
04:42PM 38.2240 -87.2990 51° Northeast 463 533 35,000  Level FlightAware
04:43PM 38.2790 -87.2120 51° Northeast 463 533 35,000  Level FlightAware
04:43PM 38.3310 -87.1290 51° Northeast 465 535 35,000  Level FlightAware
04:44PM 38.3860 -87.0410 51° Northeast 467 537 35,000  Level FlightAware
04:45PM 38.4450 -86.9490 51° Northeast 466 536 35,000  Level FlightAware
04:45PM 38.4900 -86.8750 52° Northeast 468 539 35,000  Level FlightAware
04:46PM 38.5430 -86.7910 51° Northeast 469 540 35,000  Level FlightAware
04:47PM 38.6050 -86.6910 52° Northeast 471 542 35,000  Level FlightAware
04:47PM 38.6600 -86.6030 51° Northeast 472 543 35,000  Level FlightAware
04:48PM 38.7190 -86.5070 52° Northeast 466 536 35,000  Level FlightAware
04:49PM 38.7700 -86.4250 51° Northeast 462 532 35,000  Level FlightAware
04:49PM 38.8230 -86.3370 52° Northeast 459 528 35,000  Level FlightAware
04:50PM 38.8910 -86.2260 52° Northeast 462 532 35,000  Level FlightAware
04:51PM 38.9480 -86.1350 51° Northeast 462 532 35,000  Level FlightAware
04:52PM 39.0000 -86.0490 52° Northeast 458 527 35,000  Level FlightAware
04:52PM 39.0550 -85.9570 52° Northeast 452 520 35,000  Level FlightAware
04:53PM 39.1120 -85.8640 52° Northeast 448 516 35,000  Level FlightAware
04:54PM 39.1540 -85.7940 52° Northeast 448 516 35,000  Level FlightAware
04:54PM 39.2160 -85.6910 52° Northeast 448 516 35,000  Level FlightAware
04:55PM 39.2640 -85.6110 52° Northeast 449 517 35,000  Level FlightAware
04:56PM 39.3130 -85.5300 52° Northeast 445 512 35,000  Level FlightAware
04:56PM 39.3670 -85.4440 51° Northeast 437 503 35,000  Level FlightAware
04:57PM 39.4270 -85.3550 49° Northeast 428 493 35,000  Level FlightAware
04:58PM 39.4760 -85.2820 49° Northeast 425 489 35,000  Level FlightAware
04:58PM 39.5350 -85.1940 49° Northeast 424 488 35,000  Level FlightAware
04:59PM 39.5910 -85.1110 49° Northeast 425 489 35,000  Level FlightAware
05:00PM 39.6280 -85.0540 50° Northeast 426 490 35,000  Level FlightAware
05:01PM 39.7080 -84.9340 49° Northeast 427 491 35,000  Level FlightAware
05:01PM 39.7600 -84.8560 49° Northeast 427 491 35,000  Level FlightAware
05:02PM 39.8290 -84.7500 50° Northeast 428 493 35,000  Level FlightAware
05:03PM 39.8870 -84.6620 49° Northeast 427 491 35,000  Level FlightAware
05:04PM 39.9590 -84.5520 49° Northeast 428 493 35,000  Level FlightAware
05:05PM 40.0110 -84.4710 50° Northeast 432 497 35,000  Level FlightAware
05:05PM 40.0680 -84.3850 49° Northeast 434 499 35,000  Level FlightAware
05:06PM 40.1200 -84.3050 50° Northeast 435 501 35,000  Level FlightAware
05:07PM 40.1770 -84.2170 50° Northeast 434 499 35,000  Level FlightAware
05:07PM 40.2260 -84.1410 50° Northeast 433 498 35,000  Level FlightAware
05:08PM 40.2860 -84.0480 50° Northeast 433 498 35,000  Level FlightAware
05:09PM 40.3350 -83.9680 51° Northeast 437 503 35,000  Level FlightAware
05:10PM 40.3850 -83.8790 54° Northeast 437 503 35,000  Level FlightAware
05:10PM 40.4360 -83.7890 53° Northeast 440 506 35,000  Level FlightAware
05:11PM 40.4900 -83.6980 52° Northeast 443 510 35,000  Level FlightAware
05:12PM 40.5400 -83.6120 53° Northeast 446 513 35,000  Level FlightAware
05:12PM 40.5940 -83.5160 53° Northeast 449 517 35,000  Level FlightAware
05:13PM 40.6520 -83.4190 52° Northeast 447 514 35,000  Level FlightAware
05:14PM 40.7170 -83.3040 53° Northeast 445 512 35,000  Level FlightAware
05:15PM 40.7650 -83.2190 53° Northeast 443 510 35,000  Level FlightAware
05:15PM 40.8110 -83.1370 53° Northeast 444 511 35,000  Level FlightAware
05:16PM 40.8670 -83.0400 53° Northeast 445 512 35,000  Level FlightAware
05:17PM 40.9130 -82.9540 55° Northeast 453 521 35,000  Level FlightAware
05:17PM 40.9450 -82.8420 69° East 461 531 35,000  Level FlightAware
05:18PM 40.9760 -82.7340 69° East 462 532 35,000  Level FlightAware
05:19PM 41.0080 -82.6200 70° East 462 532 35,000  Level FlightAware
05:19PM 41.0280 -82.5510 69° East 462 532 35,000  Level FlightAware
05:20PM 41.0580 -82.4450 69° East 462 532 35,000  Level FlightAware
05:20PM 41.0880 -82.3420 69° East 464 534 35,000  Level FlightAware
05:21PM 41.1200 -82.2280 70° East 464 534 35,000  Level FlightAware
05:22PM 41.1470 -82.1290 70° East 463 533 35,000  Level FlightAware
05:22PM 41.1780 -82.0200 69° East 464 534 35,000  Level FlightAware
05:23PM 41.2060 -81.9180 70° East 465 535 35,000  Level FlightAware
05:24PM 41.2380 -81.8050 69° East 467 537 35,000  Level FlightAware
05:25PM 41.2720 -81.6810 70° East 468 539 35,000 300 Level FlightAware
05:25PM 41.3020 -81.5700 70° East 471 542 35,500 1,020 Climbing FlightAware
05:26PM 41.3350 -81.4510 70° East 465 535 36,500 1,020 Climbing FlightAware
05:27PM 41.3640 -81.3430 70° East 467 537 37,000 360 Climbing FlightAware
05:27PM 41.3900 -81.2490 70° East 465 535 37,000  Level FlightAware
05:28PM 41.4190 -81.1420 70° East 462 532 37,000  Level FlightAware
05:29PM 41.4510 -81.0240 70° East 463 533 37,000  Level FlightAware
05:29PM 41.4790 -80.9160 71° East 466 536 37,000  Level FlightAware
05:30PM 41.5120 -80.7940 70° East 469 540 37,000  Level FlightAware
05:31PM 41.5420 -80.6850 70° East 469 540 37,000  Level FlightAware
05:31PM 41.5730 -80.5650 71° East 468 539 37,000  Level FlightAware
05:32PM 41.6020 -80.4560 70° East 468 539 37,000  Level FlightAware
05:33PM 41.6340 -80.3330 71° East 466 536 37,000  Level FlightAware
05:34PM 41.6620 -80.2240 71° East 469 540 37,000  Level FlightAware
05:34PM 41.6930 -80.1060 71° East 469 540 37,000  Level FlightAware
05:35PM 41.7210 -79.9960 71° East 468 539 37,000  Level FlightAware
05:36PM 41.7500 -79.8840 71° East 467 537 37,000  Level FlightAware
05:36PM 41.7770 -79.7800 71° East 472 543 37,000  Level FlightAware
05:37PM 41.8060 -79.6660 71° East 480 552 37,000  Level FlightAware
05:38PM 41.8370 -79.5440 71° East 481 554 37,000  Level FlightAware
05:38PM 41.8590 -79.4540 72° East 479 551 37,000  Level FlightAware
05:39PM 41.8900 -79.3340 71° East 476 548 37,000  Level FlightAware
05:40PM 41.9180 -79.2190 72° East 477 549 37,000  Level FlightAware
05:40PM 41.9470 -79.1010 72° East 478 550 37,000  Level FlightAware
05:41PM 41.9780 -78.9770 71° East 478 550 37,000  Level FlightAware
05:42PM 42.0070 -78.8580 72° East 481 554 37,000  Level FlightAware
05:42PM 42.0340 -78.7480 72° East 480 552 37,000  Level FlightAware
05:43PM 42.0620 -78.6340 72° East 478 550 37,000  Level FlightAware
05:44PM 42.0860 -78.5330 72° East 477 549 37,000  Level FlightAware
05:44PM 42.1170 -78.4050 72° East 475 547 37,000  Level FlightAware
05:45PM 42.1460 -78.2870 72° East 476 548 37,000  Level FlightAware
05:46PM 42.1850 -78.1230 72° East 478 550 37,000  Level FlightAware
05:47PM 42.2060 -78.0320 73° East 479 551 37,000  Level FlightAware
05:47PM 42.2410 -77.8860 72° East 484 557 37,000  Level FlightAware
05:48PM 42.2680 -77.7680 73° East 486 559 37,000  Level FlightAware
05:49PM 42.2970 -77.6500 72° East 483 556 37,000  Level FlightAware
05:50PM 42.3250 -77.5270 73° East 481 554 37,000  Level FlightAware
05:50PM 42.3530 -77.4040 73° East 479 551 37,000  Level FlightAware
05:51PM 42.3820 -77.2770 73° East 483 556 37,000  Level FlightAware
05:52PM 42.4090 -77.1610 72° East 488 562 37,000  Level FlightAware
05:52PM 42.4350 -77.0410 74° East 487 560 37,000  Level FlightAware
05:53PM 42.4530 -76.9110 79° East 477 549 37,000  Level FlightAware
05:54PM 42.4650 -76.7960 82° East 476 548 37,000  Level FlightAware
05:54PM 42.4790 -76.6660 82° East 477 549 37,000  Level FlightAware
05:55PM 42.4900 -76.5570 82° East 480 552 37,000  Level FlightAware
05:56PM 42.5030 -76.4370 82° East 482 555 37,000  Level FlightAware
05:56PM 42.5160 -76.3080 82° East 482 555 37,000  Level FlightAware
05:57PM 42.5270 -76.2040 82° East 481 554 37,000  Level FlightAware
05:58PM 42.5400 -76.0760 82° East 481 554 37,000  Level FlightAware
05:58PM 42.5520 -75.9620 82° East 486 559 37,000  Level FlightAware
05:59PM 42.5650 -75.8260 83° East 489 563 37,000  Level FlightAware
06:00PM 42.5770 -75.7040 82° East 487 560 37,000  Level FlightAware
06:01PM 42.5900 -75.5720 82° East 483 556 37,000  Level FlightAware
06:01PM 42.6020 -75.4460 83° East 483 556 37,000  Level FlightAware
06:02PM 42.6130 -75.3380 82° East 485 558 37,000  Level FlightAware
06:02PM 42.6230 -75.2290 83° East 488 562 37,000  Level FlightAware
06:03PM 42.6360 -75.0890 83° East 486 559 37,000  Level FlightAware
06:04PM 42.6470 -74.9680 83° East 486 559 37,000  Level FlightAware
06:05PM 42.6580 -74.8530 83° East 485 558 37,000  Level FlightAware
06:05PM 42.6680 -74.7320 84° East 485 558 37,000  Level FlightAware
06:06PM 42.6800 -74.6020 83° East 489 563 37,000  Level FlightAware
06:07PM 42.6920 -74.4680 83° East 490 564 37,000  Level FlightAware
06:07PM 42.7030 -74.3460 83° East 489 563 37,000  Level FlightAware
06:08PM 42.7140 -74.2150 83° East 489 563 37,000  Level FlightAware
06:09PM 42.7230 -74.0980 84° East 493 567 37,000  Level FlightAware
06:09PM 42.7310 -74.0080 83° East 497 572 37,000  Level FlightAware
06:10PM 42.7410 -73.8720 84° East 490 564 37,000  Level FlightAware
06:11PM 42.7410 -73.7010 90° East 475 547 37,000  Level FlightAware
06:12PM 42.7400 -73.6070 91° East 475 547 37,000 -120 Level FlightAware
06:12PM 42.7180 -73.5200 109° East 36,900 -180 Descending FlightAware
06:12PM 42.7140 -73.4820 98° East 464 534 36,900 -360 Level FlightAware
06:13PM 42.7010 -73.3630 98° East 455 524 36,600 -720 Descending FlightAware
06:14PM 42.6880 -73.2470 99° East 451 519 35,900 -1,080 Descending FlightAware
06:14PM 42.6730 -73.1050 98° East 442 509 35,000 -840 Descending FlightAware
06:15PM 42.6600 -72.9820 98° East 435 501 34,600 -1,140 Descending FlightAware
06:16PM 42.6450 -72.8570 99° East 419 482 33,300 -1,560 Descending FlightAware
06:17PM 42.6330 -72.7540 99° East 411 473 32,500 -1,380 Descending FlightAware
06:17PM 42.6220 -72.6630 99° East 407 468 31,600 -1,440 Descending FlightAware
06:18PM 42.6080 -72.5540 100° East 401 461 30,600 -1,500 Descending FlightAware
06:18PM 42.5960 -72.4570 100° East 401 461 29,600 -1,200 Descending FlightAware
06:19PM 42.5840 -72.3600 100° East 386 444 29,100 -1,020 Descending FlightAware
06:20PM 42.5730 -72.2650 99° East 380 437 28,300 -1,140 Descending FlightAware
06:21PM 42.5600 -72.1650 100° East 373 429 27,500 -1,020 Descending FlightAware
06:21PM 42.5470 -72.0680 100° East 362 417 26,900 -1,200 Descending FlightAware
06:22PM 42.5550 -71.9700 84° East 378 435 25,800 -1,500 Descending FlightAware
06:22PM 42.5690 -71.9480 49° Northeast 380 437 25,500 -1,620 Descending FlightAware
06:22PM 42.5900 -71.9310 31° Northeast 379 436 25,100 -1,440 Descending FlightAware
06:23PM 42.6160 -71.9240 11° North 370 426 24,800 -1,380 Descending FlightAware
06:23PM 42.6490 -71.9360 345° North 354 407 24,300 -1,440 Descending FlightAware
06:23PM 42.6660 -71.9560 319° Northwest 339 390 24,000 -1,740 Descending FlightAware
06:24PM 42.6750 -71.9820 295° West 324 373 23,500 -2,460 Descending FlightAware
06:24PM 42.6750 -72.0390 270° West 313 360 22,300 -2,760 Descending FlightAware
06:24PM 42.6660 -72.0670 246° West 311 358 21,500 -3,000 Descending FlightAware
06:24PM 42.6560 -72.0860 234° Southwest 309 356 20,900 -2,820 Descending FlightAware
06:25PM 42.6390 -72.1030 216° Southwest 307 353 20,200 -2,700 Descending FlightAware
06:25PM 42.6120 -72.1140 197° South 304 350 19,300 -3,000 Descending FlightAware
06:26PM 42.5720 -72.1010 167° South 319 367 17,800 -2,880 Descending FlightAware
06:26PM 42.5600 -72.0870 139° Southeast 322 371 17,400 -2,400 Descending FlightAware
06:26PM 42.5460 -72.0570 122° Southeast 333 383 16,700 -2,820 Descending FlightAware
06:26PM 42.5420 -72.0330 103° East 343 395 16,100 -2,160 Descending FlightAware
06:27PM 42.5350 -71.9430 96° East 344 396 14,800 -2,040 Descending FlightAware
06:28PM 42.5270 -71.8470 96° East 338 389 13,200 -2,340 Descending FlightAware
06:28PM 42.5190 -71.7630 97° East 335 386 11,600 -1,800 Descending FlightAware
06:29PM 42.5130 -71.6800 96° East 312 359 10,800 -540 Descending FlightAware
06:30PM 42.5100 -71.6010 93° East 292 336 10,900 -720 Climbing FlightAware
06:30PM 42.5040 -71.5210 96° East 289 333 9,800 -1,620 Descending FlightAware
06:31PM 42.5030 -71.5000 94° East 290 334 9,400 -1,740 Descending FlightAware
06:31PM 42.4980 -71.4450 97° East 289 333 8,600 -1,800 Descending FlightAware
06:32PM 42.4940 -71.3930 96° East 289 333 7,700 -1,800 Descending FlightAware
06:32PM 42.4920 -71.3730 98° East 287 330 7,400 -1,680 Descending FlightAware
06:32PM 42.4880 -71.3240 96° East 284 327 6,600 -1,080 Descending FlightAware
06:33PM 42.4840 -71.2700 96° East 264 304 6,400 -420 Descending FlightAware
06:33PM 42.4830 -71.2270 92° East 247 284 6,200 -540 Descending FlightAware
06:34PM 42.4820 -71.1840 92° East 228 262 5,900 -480 Descending FlightAware
06:34PM 42.4820 -71.1680 90° East 228 262 5,900  Level FlightAware
06:34PM 42.4760 -71.1300 102° East 223 257 5,900  Level FlightAware
06:35PM 42.4660 -71.0950 111° Southeast 222 255 5,900  Level FlightAware
06:35PM 42.4540 -71.0580 114° Southeast 224 258 5,900  Level FlightAware
06:36PM 42.4410 -71.0380 131° Southeast 216 249 5,900  Level FlightAware
06:36PM 42.4270 -71.0250 146° Southeast 222 255 5,900  Level FlightAware
06:36PM 42.4010 -70.9990 144° Southeast 222 255 5,900  Level FlightAware
06:37PM 42.3800 -70.9790 145° Southeast 222 255 5,900  Level FlightAware
06:37PM 42.3600 -70.9600 145° Southeast 221 254 5,900  Level FlightAware
06:38PM 42.3360 -70.9360 144° Southeast 221 254 5,900  Level FlightAware
06:38PM 42.3220 -70.9230 146° Southeast 221 254 5,900  Level FlightAware
06:38PM 42.3060 -70.9160 162° South 222 255 5,900 -480 Level FlightAware
06:39PM 42.2830 -70.9240 194° South 221 254 5,600 -960 Descending FlightAware
06:39PM 42.2650 -70.9320 198° South 222 255 5,200 -1,080 Descending FlightAware
06:39PM 42.2330 -70.9450 197° South 224 258 4,700 -600 Descending FlightAware
06:40PM 42.2120 -70.9540 198° South 224 258 4,700 -540 Level FlightAware
06:41PM 42.1750 -70.9690 197° South 205 236 4,100 -420 Descending FlightAware
06:41PM 42.1244 -70.9931 197° South 215 247 4,100 -420 Level Boston Center
06:42PM 42.1189 -71.0631 264° West 179 206 3,400 -480 Descending Boston Center
06:44PM 42.1667 -71.1000 330° Northwest 190 219 3,100 -240 Descending KA90
06:45PM 42.2167 -71.0667 26° Northeast 186 214 2,900 -600 Descending KA90
06:46PM 42.2667 -71.0500 14° North 163 188 1,900 -900 Descending KA90
06:47PM 42.3000 -71.0333 20° North 123 142 1,200 -660 Descending KA90
06:48PM 42.3333 -71.0167 20° North 114 131 600 -600 Descending KA90